createdAt,value
2018-06-10T00:03:00.167Z,52.10
2018-06-10T00:05:29.527Z,52.30
2018-06-10T00:07:58.605Z,53.20
2018-06-10T00:10:27.818Z,54.20
2018-06-10T00:12:56.910Z,54.30
2018-06-10T00:15:26.018Z,53.80
2018-06-10T00:20:24.132Z,55.20
2018-06-10T00:22:53.248Z,53.80
2018-06-10T00:25:22.352Z,54.90
2018-06-10T00:27:51.645Z,55.10
2018-06-10T00:30:21.062Z,55.10
2018-06-10T00:32:50.194Z,54.80
2018-06-10T00:35:19.297Z,55.20
2018-06-10T00:37:48.690Z,55.40
2018-06-10T00:40:17.774Z,55.40
2018-06-10T00:42:47.219Z,56.00
2018-06-10T00:45:16.647Z,54.60
2018-06-10T00:47:45.756Z,56.30
2018-06-10T00:50:14.965Z,55.20
2018-06-10T00:52:44.008Z,54.30
2018-06-10T00:55:13.148Z,54.20
2018-06-10T00:57:42.495Z,55.50
2018-06-10T01:00:11.617Z,55.20
2018-06-10T01:02:40.736Z,55.20
2018-06-10T01:05:10.072Z,54.80
2018-06-10T01:07:39.542Z,54.50
2018-06-10T01:10:09.548Z,54.50
2018-06-10T01:12:38.878Z,54.10
2018-06-10T01:15:08.570Z,54.30
2018-06-10T01:17:37.670Z,53.90
2018-06-10T01:20:07.036Z,53.30
2018-06-10T01:22:36.147Z,54.50
2018-06-10T01:25:05.260Z,54.60
2018-06-10T01:27:34.341Z,53.80
2018-06-10T01:30:03.666Z,53.20
2018-06-10T01:32:33.192Z,54.60
2018-06-10T01:35:02.357Z,54.80
2018-06-10T01:37:31.425Z,54.50
2018-06-10T01:40:00.582Z,55.70
2018-06-10T01:42:29.745Z,55.40
2018-06-10T01:44:59.154Z,57.20
2018-06-10T01:47:28.221Z,57.40
2018-06-10T01:49:57.873Z,55.80
2018-06-10T01:52:27.473Z,57.70
2018-06-10T01:54:56.560Z,57.60
2018-06-10T01:57:25.647Z,56.60
2018-06-10T01:59:55.011Z,58.00
2018-06-10T02:02:24.336Z,56.90
2018-06-10T02:04:53.510Z,57.60
2018-06-10T02:07:22.601Z,57.20
2018-06-10T02:09:51.964Z,58.00
2018-06-10T02:12:21.574Z,57.70
2018-06-10T02:14:50.644Z,57.40
2018-06-10T02:17:20.289Z,57.70
2018-06-10T02:19:49.397Z,58.50
2018-06-10T02:24:47.813Z,59.70
2018-06-10T02:27:16.924Z,59.40
2018-06-10T02:29:46.567Z,58.20
2018-06-10T02:32:15.671Z,59.50
2018-06-10T02:34:44.812Z,59.80
2018-06-10T02:37:14.059Z,60.40
2018-06-10T02:39:43.153Z,59.50
2018-06-10T02:42:12.228Z,60.40
2018-06-10T02:44:41.322Z,60.80
2018-06-10T02:47:10.468Z,62.10
2018-06-10T02:49:39.546Z,63.00
2018-06-10T02:52:08.715Z,63.30
2018-06-10T02:54:37.812Z,63.90
2018-06-10T02:57:06.928Z,64.60
2018-06-10T02:59:36.034Z,64.80
2018-06-10T03:02:05.128Z,63.90
2018-06-10T03:04:34.310Z,64.40
2018-06-10T03:07:03.406Z,64.40
2018-06-10T03:09:32.629Z,62.80
2018-06-10T03:14:30.899Z,61.90
2018-06-10T03:17:00.178Z,61.50
2018-06-10T03:19:29.581Z,61.20
2018-06-10T03:21:58.628Z,61.20
2018-06-10T03:24:27.744Z,61.00
2018-06-10T03:26:56.798Z,61.00
2018-06-10T03:29:25.850Z,61.50
2018-06-10T03:31:54.928Z,61.20
2018-06-10T03:34:24.028Z,61.30
2018-06-10T03:36:53.429Z,60.80
2018-06-10T03:39:22.532Z,61.50
2018-06-10T03:41:51.617Z,61.20
2018-06-10T03:44:20.917Z,60.40
2018-06-10T03:46:50.012Z,60.80
2018-06-10T03:49:19.094Z,61.50
2018-06-10T03:51:48.173Z,62.40
2018-06-10T03:54:17.261Z,62.10
2018-06-10T03:56:46.337Z,61.00
2018-06-10T03:59:15.404Z,61.50
2018-06-10T04:01:45.138Z,61.90
2018-06-10T04:04:14.201Z,62.60
2018-06-10T04:06:43.273Z,63.10
2018-06-10T04:09:12.739Z,63.00
2018-06-10T04:11:41.833Z,63.00
2018-06-10T04:14:10.907Z,61.90
2018-06-10T04:16:40.329Z,61.70
2018-06-10T04:19:09.616Z,60.80
2018-06-10T04:21:38.982Z,61.30
2018-06-10T04:24:08.414Z,61.00
2018-06-10T04:26:37.492Z,60.40
2018-06-10T04:29:06.641Z,60.30
2018-06-10T04:31:36.169Z,59.40
2018-06-10T04:34:05.529Z,58.50
2018-06-10T04:36:34.885Z,59.50
2018-06-10T04:39:05.703Z,59.10
2018-06-10T04:41:35.127Z,60.10
2018-06-10T04:44:04.245Z,59.80
2018-06-10T04:46:33.553Z,58.90
2018-06-10T04:49:02.910Z,59.10
2018-06-10T04:51:32.269Z,59.20
2018-06-10T04:54:01.382Z,60.40
2018-06-10T04:56:30.723Z,61.50
2018-06-10T04:58:59.780Z,61.30
2018-06-10T05:01:29.162Z,61.50
2018-06-10T05:03:58.210Z,62.10
2018-06-10T05:06:27.558Z,62.80
2018-06-10T05:08:56.765Z,63.10
2018-06-10T05:11:25.845Z,63.10
2018-06-10T05:13:54.934Z,63.00
2018-06-10T05:18:53.889Z,61.90
2018-06-10T05:21:23.214Z,61.90
2018-06-10T05:23:52.408Z,61.20
2018-06-10T05:26:21.467Z,61.20
2018-06-10T05:31:19.923Z,58.90
2018-06-10T05:33:49.036Z,59.10
2018-06-10T05:36:18.096Z,58.80
2018-06-10T05:38:48.321Z,58.50
2018-06-10T05:41:17.497Z,58.90
2018-06-10T05:43:47.137Z,59.80
2018-06-10T05:46:16.533Z,57.70
2018-06-10T05:48:45.721Z,58.50
2018-06-10T05:51:14.781Z,57.40
2018-06-10T05:53:43.881Z,57.30
2018-06-10T05:56:12.976Z,57.60
2018-06-10T05:58:42.033Z,58.30
2018-06-10T06:01:11.950Z,57.60
2018-06-10T06:03:41.038Z,58.00
2018-06-10T06:06:10.416Z,57.60
2018-06-10T06:08:39.536Z,57.60
2018-06-10T06:11:08.884Z,58.00
2018-06-10T06:13:38.197Z,57.40
2018-06-10T06:16:07.884Z,56.70
2018-06-10T06:18:37.217Z,56.90
2018-06-10T06:21:06.397Z,55.80
2018-06-10T06:23:35.746Z,54.80
2018-06-10T06:26:05.097Z,54.90
2018-06-10T06:28:34.212Z,53.90
2018-06-10T06:31:03.313Z,54.10
2018-06-10T06:33:32.402Z,52.30
2018-06-10T06:36:01.498Z,52.90
2018-06-10T06:38:31.718Z,52.30
2018-06-10T06:41:00.845Z,51.50
2018-06-10T06:43:30.341Z,51.10
2018-06-10T06:45:59.492Z,51.20
2018-06-10T06:48:29.346Z,50.50
2018-06-10T06:50:58.447Z,49.50
2018-06-10T06:53:27.573Z,48.30
2018-06-10T06:55:56.848Z,47.30
2018-06-10T06:58:25.925Z,46.10
2018-06-10T07:00:58.349Z,45.00
2018-06-10T07:03:27.829Z,45.00
2018-06-10T07:05:57.417Z,44.70
2018-06-10T07:08:26.473Z,43.90
2018-06-10T07:10:55.745Z,44.00
2018-06-10T07:13:25.164Z,44.30
2018-06-10T07:15:54.242Z,44.00
2018-06-10T07:18:23.591Z,44.60
2018-06-10T07:20:52.681Z,43.90
2018-06-10T07:23:21.837Z,43.60
2018-06-10T07:25:51.024Z,43.40
2018-06-10T07:28:20.172Z,42.70
2018-06-10T07:30:49.257Z,41.90
2018-06-10T07:33:18.399Z,41.00
2018-06-10T07:35:47.850Z,40.70
2018-06-10T07:38:16.980Z,40.70
2018-06-10T07:40:46.261Z,40.20
2018-06-10T07:43:15.357Z,40.20
2018-06-10T07:45:44.433Z,40.70
2018-06-10T07:48:13.563Z,41.20
2018-06-10T07:50:42.707Z,40.70
2018-06-10T07:53:11.814Z,40.20
2018-06-10T07:55:40.942Z,39.30
2018-06-10T07:58:10.062Z,39.90
2018-06-10T08:00:39.558Z,39.40
2018-06-10T08:03:08.845Z,40.70
2018-06-10T08:05:37.945Z,41.20
2018-06-10T08:08:07.022Z,40.50
2018-06-10T08:10:36.070Z,39.40
2018-06-10T08:13:05.175Z,38.40
2018-06-10T08:15:34.351Z,38.40
2018-06-10T08:18:03.426Z,38.40
2018-06-10T08:20:32.505Z,34.10
2018-06-10T08:23:01.628Z,36.00
2018-06-10T08:25:31.161Z,36.50
2018-06-10T08:28:00.535Z,36.20
2018-06-10T08:30:29.586Z,36.20
2018-06-10T08:32:58.630Z,36.00
2018-06-10T08:35:28.002Z,35.10
2018-06-10T08:37:57.520Z,33.70
2018-06-10T08:40:26.812Z,33.10
2018-06-10T08:42:55.923Z,32.20
2018-06-10T08:45:25.477Z,31.70
2018-06-10T08:47:54.605Z,31.40
2018-06-10T08:50:23.944Z,32.60
2018-06-10T08:52:53.025Z,33.40
2018-06-10T08:55:22.772Z,34.20
2018-06-10T08:57:51.944Z,34.00
2018-06-10T09:00:21.274Z,33.20
2018-06-10T09:02:50.594Z,33.50
2018-06-10T09:05:19.672Z,33.40
2018-06-10T09:07:48.722Z,32.60
2018-06-10T09:10:17.769Z,33.10
2018-06-10T09:12:47.368Z,33.10
2018-06-10T09:15:16.678Z,32.00
2018-06-10T09:17:47.713Z,30.60
2018-06-10T09:20:17.722Z,30.30
2018-06-10T09:22:46.841Z,29.90
2018-06-10T09:25:15.953Z,28.90
2018-06-10T09:27:45.011Z,28.50
2018-06-10T09:30:14.151Z,29.00
2018-06-10T09:32:43.212Z,29.10
2018-06-10T09:35:12.642Z,28.90
2018-06-10T09:37:41.930Z,29.40
2018-06-10T09:40:11.464Z,29.90
2018-06-10T09:42:40.751Z,29.80
2018-06-10T09:45:09.833Z,29.50
2018-06-10T09:47:38.869Z,29.60
2018-06-10T09:50:07.960Z,29.90
2018-06-10T09:52:37.857Z,30.40
2018-06-10T09:55:06.988Z,31.00
2018-06-10T09:57:35.976Z,31.90
2018-06-10T10:00:05.090Z,32.00
2018-06-10T10:02:34.809Z,31.40
2018-06-10T10:05:04.142Z,30.80
2018-06-10T10:07:33.433Z,29.70
2018-06-10T10:10:02.693Z,30.10
2018-06-10T10:12:31.959Z,30.30
2018-06-10T10:15:01.065Z,30.60
2018-06-10T10:17:30.165Z,31.10
2018-06-10T10:19:59.261Z,31.60
2018-06-10T10:22:28.345Z,32.30
2018-06-10T10:24:57.668Z,32.30
2018-06-10T10:27:26.982Z,32.60
2018-06-10T10:29:56.286Z,33.10
2018-06-10T10:32:25.377Z,32.50
2018-06-10T10:34:54.549Z,32.00
2018-06-10T10:37:23.651Z,31.60
2018-06-10T10:39:52.927Z,31.70
2018-06-10T10:42:22.254Z,31.00
2018-06-10T10:44:52.041Z,30.30
2018-06-10T10:47:21.129Z,30.10
2018-06-10T10:49:50.241Z,29.50
2018-06-10T10:52:19.475Z,29.50
2018-06-10T10:54:48.577Z,30.10
2018-06-10T10:57:17.693Z,30.80
2018-06-10T10:59:46.752Z,31.60
2018-06-10T11:02:15.830Z,31.70
2018-06-10T11:04:44.942Z,31.30
2018-06-10T11:07:13.997Z,30.70
2018-06-10T11:09:43.072Z,29.90
2018-06-10T11:12:12.431Z,29.20
2018-06-10T11:14:41.492Z,29.50
2018-06-10T11:17:10.614Z,29.40
2018-06-10T11:19:39.745Z,29.90
2018-06-10T11:22:09.116Z,30.40
2018-06-10T11:24:38.465Z,29.80
2018-06-10T11:27:07.612Z,29.90
2018-06-10T11:29:36.856Z,29.90
2018-06-10T11:32:05.928Z,29.80
2018-06-10T11:34:35.473Z,28.50
2018-06-10T11:37:05.350Z,28.30
2018-06-10T11:39:34.831Z,27.20
2018-06-10T11:42:03.926Z,25.30
2018-06-10T11:44:33.214Z,26.10
2018-06-10T11:47:02.523Z,26.20
2018-06-10T11:49:31.851Z,26.00
2018-06-10T11:52:01.251Z,26.10
2018-06-10T11:54:30.587Z,26.30
2018-06-10T11:56:59.894Z,26.60
2018-06-10T11:59:29.003Z,26.60
2018-06-10T12:01:58.418Z,26.50
2018-06-10T12:04:27.526Z,26.60
2018-06-10T12:06:56.860Z,26.80
2018-06-10T12:09:25.937Z,27.40
2018-06-10T12:11:55.556Z,27.30
2018-06-10T12:14:25.053Z,27.60
2018-06-10T12:16:54.238Z,27.70
2018-06-10T12:19:23.321Z,28.00
2018-06-10T12:21:52.414Z,28.30
2018-06-10T12:24:21.690Z,28.30
2018-06-10T12:26:50.801Z,29.10
2018-06-10T12:29:19.896Z,29.80
2018-06-10T12:31:49.182Z,30.80
2018-06-10T12:34:18.307Z,31.60
2018-06-10T12:36:47.578Z,32.60
2018-06-10T12:39:16.647Z,33.80
2018-06-10T12:41:45.957Z,34.80
2018-06-10T12:44:15.014Z,35.70
2018-06-10T12:46:44.069Z,37.10
2018-06-10T12:49:13.247Z,37.50
2018-06-10T12:51:42.259Z,37.50
2018-06-10T12:54:11.577Z,37.20
2018-06-10T12:56:40.674Z,37.20
2018-06-10T12:59:09.977Z,39.10
2018-06-10T13:01:39.283Z,39.70
2018-06-10T13:04:09.748Z,39.90
2018-06-10T13:06:38.833Z,39.30
2018-06-10T13:09:08.651Z,38.70
2018-06-10T13:11:37.764Z,38.20
2018-06-10T13:14:06.847Z,38.20
2018-06-10T13:16:35.943Z,39.00
2018-06-10T13:19:05.832Z,38.80
2018-06-10T13:21:34.896Z,39.10
2018-06-10T13:24:04.695Z,39.10
2018-06-10T13:26:33.762Z,39.30
2018-06-10T13:29:03.057Z,38.10
2018-06-10T13:31:32.407Z,37.90
2018-06-10T13:34:01.689Z,37.80
2018-06-10T13:36:30.764Z,37.60
2018-06-10T13:39:00.110Z,38.40
2018-06-10T13:41:29.258Z,39.60
2018-06-10T13:43:58.378Z,38.80
2018-06-10T13:46:27.488Z,38.80
2018-06-10T13:48:56.863Z,39.40
2018-06-10T13:51:25.935Z,38.40
2018-06-10T13:53:55.249Z,37.90
2018-06-10T13:56:24.318Z,38.20
2018-06-10T13:58:53.593Z,37.60
2018-06-10T14:01:22.976Z,37.90
2018-06-10T14:03:52.037Z,39.40
2018-06-10T14:06:21.129Z,40.70
2018-06-10T14:08:50.419Z,40.50
2018-06-10T14:11:19.716Z,40.50
2018-06-10T14:13:49.005Z,40.90
2018-06-10T14:16:18.184Z,41.50
2018-06-10T14:18:47.271Z,42.20
2018-06-10T14:21:16.346Z,43.60
2018-06-10T14:23:45.441Z,44.60
2018-06-10T14:26:14.518Z,45.20
2018-06-10T14:28:43.636Z,45.80
2018-06-10T14:31:13.017Z,46.10
2018-06-10T14:33:42.110Z,46.20
2018-06-10T14:36:11.478Z,46.10
2018-06-10T14:38:40.595Z,45.80
2018-06-10T14:41:09.865Z,45.60
2018-06-10T14:43:38.957Z,45.30
2018-06-10T14:46:08.042Z,45.30
2018-06-10T14:48:37.080Z,45.50
2018-06-10T14:51:06.380Z,45.50
2018-06-10T14:53:35.496Z,44.90
2018-06-10T14:56:04.849Z,44.70
2018-06-10T14:58:33.903Z,44.30
2018-06-10T15:01:03.305Z,44.30
2018-06-10T15:03:32.563Z,46.10
2018-06-10T15:06:01.967Z,47.40
2018-06-10T15:08:31.058Z,50.90
2018-06-10T15:11:00.343Z,49.50
2018-06-10T15:13:29.494Z,53.30
2018-06-10T15:15:58.576Z,55.70
2018-06-10T15:18:27.864Z,57.30
2018-06-10T15:20:56.960Z,57.00
2018-06-10T15:23:26.305Z,58.20
2018-06-10T15:25:55.400Z,57.40
2018-06-10T15:28:24.450Z,58.30
2018-06-10T15:30:53.534Z,59.10
2018-06-10T15:33:22.846Z,58.50
2018-06-10T15:35:51.944Z,58.90
2018-06-10T15:38:21.230Z,59.20
2018-06-10T15:40:50.289Z,61.00
2018-06-10T15:43:19.347Z,61.30
2018-06-10T15:45:48.465Z,61.30
2018-06-10T15:48:17.574Z,64.90
2018-06-10T15:50:46.657Z,63.10
2018-06-10T15:53:15.731Z,63.90
2018-06-10T15:55:44.805Z,65.70
2018-06-10T15:58:13.890Z,65.50
2018-06-10T16:00:42.967Z,64.00
2018-06-10T16:03:12.033Z,63.10
2018-06-10T16:05:41.089Z,65.70
2018-06-10T16:08:10.168Z,64.90
2018-06-10T16:10:39.445Z,64.20
2018-06-10T16:13:08.963Z,64.90
2018-06-10T16:15:38.083Z,62.40
2018-06-10T16:18:07.148Z,62.20
2018-06-10T16:20:36.213Z,62.40
2018-06-10T16:23:05.321Z,64.60
2018-06-10T16:25:34.625Z,63.90
2018-06-10T16:28:03.702Z,64.90
2018-06-10T16:30:33.464Z,63.70
2018-06-10T16:33:02.972Z,63.50
2018-06-10T16:35:32.067Z,62.40
2018-06-10T16:38:01.194Z,59.80
2018-06-10T16:40:30.353Z,62.60
2018-06-10T16:43:01.841Z,62.20
2018-06-10T16:45:30.958Z,61.00
2018-06-10T16:48:00.045Z,61.20
2018-06-10T16:50:29.416Z,63.30
2018-06-10T16:52:58.497Z,61.20
2018-06-10T16:55:27.827Z,60.60
2018-06-10T16:57:57.169Z,60.60
2018-06-10T17:00:27.139Z,58.60
2018-06-10T17:02:56.489Z,57.90
2018-06-10T17:05:25.994Z,59.80
2018-06-10T17:07:55.065Z,58.90
2018-06-10T17:10:24.165Z,60.30
2018-06-10T17:12:53.355Z,60.00
2018-06-10T17:15:22.653Z,59.20
2018-06-10T17:17:51.835Z,58.50
2018-06-10T17:20:21.263Z,57.40
2018-06-10T17:22:50.736Z,58.30
2018-06-10T17:25:20.218Z,57.70
2018-06-10T17:27:49.511Z,59.80
2018-06-10T17:30:18.848Z,58.90
2018-06-10T17:32:48.054Z,59.80
2018-06-10T17:35:17.160Z,60.10
2018-06-10T17:37:46.301Z,61.70
2018-06-10T17:40:15.983Z,61.90
2018-06-10T17:42:45.079Z,60.60
2018-06-10T17:45:14.166Z,61.20
2018-06-10T17:47:43.355Z,61.00
2018-06-10T17:50:12.448Z,62.20
2018-06-10T17:52:42.035Z,61.00
2018-06-10T17:55:11.165Z,60.00
2018-06-10T17:57:40.573Z,62.20
2018-06-10T18:00:09.797Z,63.50
2018-06-10T18:02:38.940Z,62.80
2018-06-10T18:05:08.281Z,62.20
2018-06-10T18:07:37.690Z,61.70
2018-06-10T18:10:07.025Z,62.80
2018-06-10T18:12:36.724Z,64.60
2018-06-10T18:15:05.985Z,63.90
2018-06-10T18:17:35.057Z,66.00
2018-06-10T18:20:04.351Z,63.10
2018-06-10T18:22:33.675Z,63.90
2018-06-10T18:25:02.991Z,63.10
2018-06-10T18:27:32.050Z,62.10
2018-06-10T18:30:01.387Z,60.80
2018-06-10T18:32:30.562Z,61.50
2018-06-10T18:35:00.379Z,60.40
2018-06-10T18:37:29.457Z,61.00
2018-06-10T18:39:58.509Z,60.80
2018-06-10T18:42:27.926Z,61.30
2018-06-10T18:44:57.049Z,61.00
2018-06-10T18:47:26.236Z,61.50
2018-06-10T18:49:55.314Z,59.20
2018-06-10T18:52:24.377Z,58.30
2018-06-10T18:54:53.498Z,59.20
2018-06-10T18:57:22.619Z,60.30
2018-06-10T18:59:51.940Z,57.60
2018-06-10T19:02:21.234Z,59.50
2018-06-10T19:04:50.528Z,60.80
2018-06-10T19:07:19.833Z,61.90
2018-06-10T19:09:48.935Z,59.80
2018-06-10T19:12:18.054Z,58.90
2018-06-10T19:14:47.135Z,57.70
2018-06-10T19:17:16.458Z,59.40
2018-06-10T19:19:45.657Z,62.80
2018-06-10T19:22:14.981Z,66.00
2018-06-10T19:24:44.091Z,68.70
2018-06-10T19:27:13.224Z,70.70
2018-06-10T19:29:42.395Z,71.40
2018-06-10T19:32:11.816Z,71.20
2018-06-10T19:34:41.047Z,71.40
2018-06-10T19:37:10.121Z,71.20
2018-06-10T19:39:39.456Z,71.90
2018-06-10T19:42:08.744Z,72.50
2018-06-10T19:44:38.189Z,73.00
2018-06-10T19:47:07.283Z,73.20
2018-06-10T19:49:36.400Z,73.60
2018-06-10T19:52:05.503Z,74.10
2018-06-10T19:54:34.668Z,74.10
2018-06-10T19:57:03.779Z,74.60
2018-06-10T19:59:32.933Z,74.50
2018-06-10T20:02:02.261Z,75.50
2018-06-10T20:04:31.614Z,75.50
2018-06-10T20:07:01.004Z,75.70
2018-06-10T20:09:30.052Z,76.30
2018-06-10T20:11:59.189Z,75.90
2018-06-10T20:14:28.328Z,76.10
2018-06-10T20:16:57.401Z,75.90
2018-06-10T20:19:26.725Z,74.80
2018-06-10T20:21:55.841Z,74.10
2018-06-10T20:24:25.148Z,73.90
2018-06-10T20:26:54.433Z,73.60
2018-06-10T20:29:23.791Z,73.20
2018-06-10T20:31:53.090Z,73.00
2018-06-10T20:34:22.188Z,72.70
2018-06-10T20:36:51.421Z,72.80
2018-06-10T20:39:20.946Z,73.90
2018-06-10T20:41:50.073Z,75.50
2018-06-10T20:44:19.340Z,76.30
2018-06-10T20:46:48.429Z,77.10
2018-06-10T20:49:17.597Z,77.70
2018-06-10T20:51:46.776Z,77.90
2018-06-10T20:54:15.888Z,78.20
2018-06-10T20:56:45.025Z,78.80
2018-06-10T20:59:14.304Z,78.80
2018-06-10T21:01:43.532Z,79.10
2018-06-10T21:04:13.029Z,78.90
2018-06-10T21:06:42.189Z,78.80
2018-06-10T21:09:11.245Z,78.20
2018-06-10T21:11:40.667Z,77.30
2018-06-10T21:14:10.059Z,76.10
2018-06-10T21:16:39.229Z,73.60
2018-06-10T21:19:08.413Z,72.80
2018-06-10T21:21:37.477Z,71.40
2018-06-10T21:24:06.613Z,70.00
2018-06-10T21:26:35.842Z,68.50
2018-06-10T21:29:05.113Z,67.80
2018-06-10T21:31:34.301Z,67.10
2018-06-10T21:34:03.441Z,66.60
2018-06-10T21:36:32.556Z,65.80
2018-06-10T21:39:01.826Z,65.30
2018-06-10T21:41:30.997Z,65.80
2018-06-10T21:44:00.089Z,65.30
2018-06-10T21:46:29.168Z,65.30
2018-06-10T21:48:58.287Z,65.30
2018-06-10T21:51:27.383Z,65.30
2018-06-10T21:53:56.457Z,65.50
2018-06-10T21:56:25.765Z,65.10
2018-06-10T21:58:54.857Z,65.10
2018-06-10T22:01:25.021Z,64.80
2018-06-10T22:03:54.884Z,64.60
2018-06-10T22:06:24.202Z,64.60
2018-06-10T22:08:53.246Z,64.60
2018-06-10T22:11:22.377Z,64.60
2018-06-10T22:13:51.713Z,64.90
2018-06-10T22:16:20.889Z,64.80
2018-06-10T22:18:50.184Z,64.20
2018-06-10T22:21:19.244Z,64.20
2018-06-10T22:23:48.592Z,64.20
2018-06-10T22:26:18.168Z,64.60
2018-06-10T22:28:47.245Z,65.10
2018-06-10T22:31:16.561Z,64.40
2018-06-10T22:33:45.709Z,64.40
2018-06-10T22:36:15.529Z,65.10
2018-06-10T22:38:45.531Z,64.60
2018-06-10T22:41:19.834Z,64.20
2018-06-10T22:43:57.651Z,64.20
2018-06-10T22:46:28.850Z,63.70
2018-06-10T22:48:59.561Z,64.90
2018-06-10T22:51:29.932Z,65.50
2018-06-10T22:54:10.742Z,66.60
2018-06-10T22:56:42.497Z,66.20
2018-06-10T22:59:11.851Z,66.70
2018-06-10T23:01:43.369Z,66.70
2018-06-10T23:04:12.762Z,66.70
2018-06-10T23:06:41.837Z,67.30
2018-06-10T23:09:14.093Z,67.40
2018-06-10T23:11:43.336Z,68.70
2018-06-10T23:14:12.621Z,69.20
2018-06-10T23:16:41.725Z,69.60
2018-06-10T23:19:10.803Z,68.90
2018-06-10T23:21:39.874Z,68.70
2018-06-10T23:24:12.336Z,69.10
2018-06-10T23:26:41.811Z,69.10
2018-06-10T23:29:11.114Z,67.40
2018-06-10T23:31:40.175Z,66.90
2018-06-10T23:34:09.245Z,66.20
2018-06-10T23:36:48.534Z,65.70
2018-06-10T23:39:19.520Z,65.70
2018-06-10T23:41:49.756Z,65.50
2018-06-10T23:44:19.129Z,65.30
2018-06-10T23:46:48.398Z,65.80
2018-06-10T23:49:17.490Z,66.70
2018-06-10T23:51:46.586Z,66.70
2018-06-10T23:54:15.885Z,66.70
2018-06-10T23:56:44.963Z,66.60
2018-06-10T23:59:14.039Z,66.60
